Latest Weather Observations for Nullarbor

IDS60801

Issued at 7:05 pm CST Wednesday 23 July 2014 (issued every 30 minutes, with the page automatically refreshed every 10 minutes)

About weather observations | Map of weather stations | Latest weather observations for SA | Other Formats
Station Details ID: 018106 Name: NULLARBOR Lat: -31.45 Lon: 130.90 Height: 64.0 m
Data from the previous 72 hours. | See also: Recent months at Nullarbor
Date/Time
CST
Temp
°C
App
Temp
°C
Dew
Point
Rel
Hum
%
Delta-T
°C
Wind Press
QNH
hPa
Press
MSL
hPa
Rain
since 9 am
mm
Dir
 
Spd
km/h
Gust
km/h
Spd
kts
Gust
kts
23/07:00pm 13.0 8.7 10.9 87 1.1 W 24 33 13 18 1013.1 - 1.0
23/06:30pm 13.1 8.3 10.3 83 1.5 W 26 32 14 17 1012.7 - 1.0
23/06:00pm 13.3 7.6 9.9 80 1.8 W 30 39 16 21 1012.2 1012.0 1.0
23/05:30pm 13.8 7.7 10.4 80 1.8 W 33 46 18 25 1011.8 - 1.0
23/05:00pm 14.2 8.0 10.2 77 2.1 W 33 50 18 27 1011.4 - 1.0
23/04:30pm 14.7 8.1 10.1 74 2.4 W 35 50 19 27 1010.9 - 1.0
23/04:00pm 14.4 8.6 11.6 83 1.5 W 33 44 18 24 1010.6 - 1.0
23/03:30pm 13.2 6.5 11.1 87 1.1 W 37 46 20 25 1010.2 - 1.0
23/03:23pm 13.0 6.0 11.1 88 1.0 W 39 54 21 29 1010.1 - 1.0
23/03:14pm 13.5 6.2 11.7 89 1.0 WSW 41 54 22 29 1009.9 - 1.0
23/03:07pm 12.9 5.0 11.6 92 0.7 WSW 44 61 24 33 1009.8 - 1.0
23/03:04pm 13.0 5.2 11.2 89 1.0 WSW 43 61 23 33 1009.7 - 1.0
23/03:00pm 13.6 6.8 11.8 89 1.0 WSW 39 61 21 33 1009.6 1009.4 1.0
23/02:30pm 13.3 6.9 12.0 92 0.7 W 37 50 20 27 1009.2 - 1.0
23/02:27pm 13.2 6.4 11.9 92 0.7 W 39 54 21 29 1009.1 - 1.0
23/02:05pm 13.7 6.9 12.1 90 0.9 W 39 59 21 32 1008.9 - 0.6
23/02:00pm 14.7 7.9 12.0 84 1.5 W 39 59 21 32 1008.7 - 0.2
23/01:58pm 15.0 8.4 12.7 86 1.3 W 39 57 21 31 1008.7 - 0.2
23/01:38pm 14.3 8.2 12.9 91 0.8 W 37 50 20 27 1008.4 - 0.2
23/01:30pm 13.7 7.4 12.4 92 0.7 W 37 50 20 27 1008.3 - 0.2
23/01:24pm 13.3 5.7 11.7 90 0.9 W 43 61 23 33 1008.3 - 0.2
23/01:13pm 15.8 8.7 11.0 73 2.6 WSW 39 59 21 32 1007.9 - 0.0
23/01:00pm 14.6 7.6 11.4 81 1.7 WSW 39 52 21 28 1007.8 - 0.0
23/12:32pm 14.8 8.3 11.6 81 1.7 WSW 37 48 20 26 1007.5 - 0.0
23/12:30pm 14.7 9.0 11.7 82 1.6 WNW 33 44 18 24 1007.4 - 0.0
23/12:28pm 14.9 9.5 12.8 87 1.2 WNW 33 44 18 24 1007.4 - 0.0
23/12:12pm 13.5 6.2 11.7 89 1.0 WNW 41 54 22 29 1007.4 - 0.0
23/12:07pm 13.2 5.5 11.4 89 1.0 WNW 43 54 23 29 1007.3 - 0.0
23/12:00pm 12.9 5.1 11.1 89 1.0 NW 43 56 23 30 1007.5 1007.4 0.0
23/11:50am 12.8 5.5 11.5 92 0.7 NW 41 54 22 29 1007.5 - 0.0
23/11:31am 11.5 3.6 10.7 95 0.4 NW 43 61 23 33 1008.0 - 0.0
23/11:30am 11.5 3.4 10.7 95 0.4 NW 44 61 24 33 1008.0 - 0.0
23/11:21am 11.9 4.8 10.8 93 0.6 NW 39 59 21 32 1008.0 - 0.0
23/11:13am 11.8 4.2 10.5 92 0.7 NW 41 61 22 33 1008.2 - 0.0
23/11:10am 11.8 4.6 10.4 91 0.7 NW 39 61 21 33 1008.3 - 0.0
23/11:06am 11.9 5.1 10.5 91 0.7 NW 37 54 20 29 1008.3 - 0.0
23/11:00am 11.8 4.6 10.5 92 0.7 NW 39 56 21 30 1008.4 - 0.0
23/10:45am 11.7 4.4 10.3 91 0.7 NW 39 57 21 31 1008.7 - 0.0
23/10:39am 12.0 4.6 9.7 86 1.2 NW 39 57 21 31 1008.7 - 0.0
23/10:30am 12.2 4.9 10.1 87 1.1 NW 39 56 21 30 1008.8 - 0.0
23/10:03am 11.9 4.6 10.1 89 0.9 NW 39 57 21 31 1008.8 - 0.0
23/10:00am 11.8 4.4 10.0 89 0.9 NW 39 56 21 30 1008.7 - 0.0
23/09:58am 11.7 4.7 10.1 90 0.8 NW 37 54 20 29 1008.8 - 0.0
23/09:35am 11.4 4.9 10.3 93 0.6 NW 35 48 19 26 1008.7 - 0.0
23/09:33am 11.3 4.8 10.4 94 0.5 NW 35 48 19 26 1008.7 - 0.0
23/09:30am 11.3 4.8 10.4 94 0.5 NW 35 48 19 26 1008.7 - 0.0
23/09:17am 11.2 4.7 10.3 94 0.5 NW 35 48 19 26 1008.7 - 0.0
23/09:05am 11.2 5.2 10.1 93 0.6 NW 32 50 17 27 1008.7 - 0.0
23/09:00am 11.1 5.1 10.0 93 0.6 NW 32 46 17 25 1008.7 1008.5 2.8
23/08:30am 10.9 4.6 9.7 92 0.6 NW 33 50 18 27 1008.6 - 2.8
23/08:27am 10.9 4.6 9.7 92 0.6 NW 33 50 18 27 1008.6 - 2.8
23/08:00am 10.8 4.1 9.6 92 0.6 NNW 35 46 19 25 1008.7 - 2.8
23/07:41am 10.7 4.4 9.6 93 0.6 NW 33 52 18 28 1008.8 - 2.8
23/07:33am 10.6 4.4 9.5 93 0.6 NW 32 41 17 22 1008.7 - 2.8
23/07:30am 10.6 4.5 9.7 94 0.5 NW 32 41 17 22 1008.7 - 2.8
23/07:00am 10.5 4.7 9.6 94 0.5 NNW 30 44 16 24 1008.6 - 2.8
23/06:30am 10.6 5.6 9.7 94 0.5 NW 26 37 14 20 1008.5 - 2.8
23/06:00am 11.1 5.5 10.2 94 0.5 NW 30 39 16 21 1008.4 1008.2 2.8
23/05:30am 11.6 5.6 10.2 91 0.7 NW 32 44 17 24 1008.4 - 2.8
23/05:19am 11.9 6.1 10.8 93 0.6 NNW 32 46 17 25 1008.5 - 2.8
23/05:07am 12.3 6.5 11.5 95 0.4 NNW 33 50 18 27 1008.5 - 2.8
23/05:01am 12.4 6.8 11.6 95 0.4 NNW 32 50 17 27 1008.5 - 2.8
23/05:00am 12.4 6.8 11.6 95 0.4 NNW 32 43 17 23 1008.6 - 2.8
23/04:30am 12.3 7.1 11.7 96 0.3 NNW 30 43 16 23 1008.7 - 2.8
23/04:00am 12.6 8.8 12.4 99 0.1 N 24 32 13 17 1008.8 - 2.8
23/03:30am 12.4 9.3 12.2 99 0.1 N 20 28 11 15 1009.5 - 2.8
23/03:11am 12.4 9.3 12.2 99 0.1 N 20 28 11 15 1009.6 - 2.8
23/03:00am 12.4 8.5 12.2 99 0.1 N 24 33 13 18 1009.8 1009.6 2.8
23/02:57am 12.5 7.9 12.3 99 0.1 N 28 50 15 27 1009.9 - 2.8
23/02:51am 12.7 8.5 12.5 99 0.1 N 26 50 14 27 1009.9 - 2.8
23/02:40am 12.2 9.0 12.0 99 0.1 N 20 26 11 14 1010.1 - 2.8
23/02:30am 12.1 8.9 11.9 99 0.1 NNE 20 26 11 14 1010.2 - 2.6
23/02:14am 11.9 8.6 11.7 99 0.1 NNE 20 28 11 15 1010.4 - 2.6
23/02:03am 11.8 8.5 11.6 99 0.1 NE 20 28 11 15 1010.6 - 2.6
23/02:00am 11.8 8.1 11.6 99 0.1 NE 22 28 12 15 1010.6 - 2.6
23/01:37am 11.7 7.6 11.5 99 0.1 NE 24 28 13 15 1010.9 - 2.6
23/01:30am 11.7 7.6 11.5 99 0.1 NE 24 30 13 16 1011.0 - 2.6
23/01:21am 11.7 8.0 11.5 99 0.1 NE 22 30 12 16 1011.2 - 2.6
23/01:20am 11.7 8.0 11.5 99 0.1 NE 22 28 12 15 1011.2 - 2.6
23/01:00am 11.7 8.4 11.5 99 0.1 NE 20 30 11 16 1011.6 - 2.6
23/12:43am 11.7 8.0 11.5 99 0.1 NE 22 32 12 17 1011.9 - 2.4
23/12:30am 11.8 8.1 11.6 99 0.1 NE 22 28 12 15 1012.2 - 2.2
23/12:06am 11.9 7.8 11.4 97 0.3 NE 24 33 13 18 1012.9 - 2.2
23/12:00am 12.1 8.0 11.5 96 0.3 NE 24 33 13 18 1013.1 1012.9 2.2
 
Date/Time
CST
Temp
°C
App
Temp
°C
Dew
Point
Rel
Hum
%
Delta-T
°C
Wind Press
QNH
hPa
Press
MSL
hPa
Rain
since 9 am
mm
Dir
 
Spd
km/h
Gust
km/h
Spd
kts
Gust
kts
22/11:30pm 12.1 9.7 11.5 96 0.3 NE 15 19 8 10 1013.7 - 2.0
22/11:12pm 12.2 9.4 11.4 95 0.4 ENE 17 24 9 13 1014.1 - 2.0
22/11:00pm 12.3 9.1 11.4 94 0.5 NE 19 24 10 13 1014.3 - 2.0
22/10:55pm 12.3 8.9 11.2 93 0.6 NE 20 24 11 13 1014.4 - 1.8
22/10:30pm 12.8 9.3 11.0 89 0.9 NE 20 26 11 14 1014.6 - 1.2
22/10:00pm 12.5 10.5 11.4 93 0.6 NE 13 17 7 9 1014.8 - 1.2
22/09:30pm 12.5 10.1 11.4 93 0.6 ENE 15 17 8 9 1014.8 - 1.2
22/09:00pm 12.3 10.3 11.4 94 0.5 NE 13 17 7 9 1015.2 1015.1 1.2
22/08:30pm 12.5 11.2 11.1 91 0.7 NNE 9 11 5 6 1015.4 - 1.0
22/08:00pm 12.9 11.1 10.8 87 1.1 N 11 22 6 12 1016.2 - 0.6
22/07:30pm 15.0 8.7 8.9 67 3.1 NNW 32 39 17 21 1016.3 - 0.0
22/07:00pm 17.2 10.1 6.4 49 5.3 N 33 43 18 23 1015.5 - 0.0
22/06:30pm 17.9 13.0 5.2 43 6.1 N 20 32 11 17 1015.1 - 0.0
22/06:00pm 16.6 14.1 6.7 52 4.9 NNE 9 11 5 6 1015.3 1015.2 0.0
22/05:30pm 17.8 14.5 6.3 47 5.7 N 13 13 7 7 1015.5 - 0.0
22/05:00pm 18.7 15.4 6.2 44 6.2 NNE 13 15 7 8 1015.5 - 0.0
22/04:30pm 19.7 16.8 6.4 42 6.7 N 11 17 6 9 1015.4 - 0.0
22/04:00pm 19.9 16.6 6.6 42 6.7 N 13 17 7 9 1015.7 - 0.0
22/03:30pm 20.3 16.0 5.1 37 7.5 N 17 24 9 13 1016.1 - 0.0
22/03:00pm 20.7 15.9 4.7 35 7.8 N 19 24 10 13 1015.9 1015.8 0.0
22/02:30pm 21.0 16.2 4.6 34 8.0 NNE 19 24 10 13 1016.0 - 0.0
22/02:00pm 20.8 16.5 5.2 36 7.7 N 17 20 9 11 1016.5 - 0.0
22/01:30pm 20.3 15.6 5.1 37 7.5 NNE 19 24 10 13 1016.7 - 0.0
22/01:00pm 20.2 15.0 5.4 38 7.3 NE 22 32 12 17 1016.5 - 0.0
22/12:30pm 19.8 15.2 5.5 39 7.1 NE 19 24 10 13 1017.7 - 0.0
22/12:00pm 19.1 14.9 5.6 41 6.6 NNE 17 20 9 11 1018.7 1018.6 0.0
22/11:30am 18.5 13.9 5.7 43 6.3 NNE 19 26 10 14 1019.3 - 0.0
22/11:00am 17.7 12.9 5.6 45 5.9 NNE 20 26 11 14 1019.6 - 0.0
22/10:30am 15.6 11.0 5.5 51 4.8 NNE 19 24 10 13 1019.1 - 0.0
22/10:00am 13.5 9.8 6.1 61 3.5 NNE 15 20 8 11 1019.7 - 0.0
22/09:30am 10.3 7.3 6.1 75 2.0 N 11 17 6 9 1020.3 - 0.0
22/09:00am 7.3 3.8 5.6 89 0.8 N 13 17 7 9 1020.3 1020.2 0.2
22/08:30am 5.9 2.2 4.7 92 0.5 N 13 17 7 9 1020.2 - 0.2
22/08:00am 4.2 0.7 3.3 94 0.4 N 11 13 6 7 1019.5 - 0.2
22/07:30am 4.3 0.1 3.6 95 0.3 N 15 17 8 9 1019.6 - 0.2
22/07:00am 4.1 -0.2 3.4 95 0.3 N 15 19 8 10 1019.5 - 0.2
22/06:30am 4.1 -0.2 3.2 94 0.4 N 15 15 8 8 1019.3 - 0.2
22/06:00am 4.5 0.6 3.5 93 0.4 N 13 15 7 8 1019.2 1019.1 0.2
22/05:30am 5.1 0.9 3.8 91 0.5 N 15 15 8 8 1019.1 - 0.2
22/05:00am 6.5 2.4 4.3 86 0.9 NNE 15 19 8 10 1018.9 - 0.2
22/04:30am 6.9 2.5 4.7 86 1.0 NNE 17 19 9 10 1018.9 - 0.2
22/04:00am 7.2 2.8 4.9 85 1.0 NNE 17 20 9 11 1019.0 - 0.2
22/03:30am 7.3 3.0 5.1 86 1.0 NNE 17 20 9 11 1019.0 - 0.2
22/03:00am 6.9 3.3 4.9 87 0.9 NNE 13 15 7 8 1018.9 1018.8 0.2
22/02:30am 7.6 4.0 5.1 84 1.1 NNE 13 17 7 9 1018.8 - 0.2
22/02:00am 9.4 5.2 5.9 79 1.6 NE 17 20 9 11 1018.9 - 0.2
22/01:30am 9.7 5.6 6.2 79 1.6 NNE 17 20 9 11 1018.9 - 0.2
22/01:00am 10.2 6.2 6.5 78 1.7 NE 17 20 9 11 1018.9 - 0.2
22/12:30am 10.3 6.8 7.2 81 1.5 NE 15 19 8 10 1019.2 - 0.2
22/12:00am 10.7 7.7 7.8 82 1.4 NE 13 15 7 8 1019.4 1019.3 0.2
 
Date/Time
CST
Temp
°C
App
Temp
°C
Dew
Point
Rel
Hum
%
Delta-T
°C
Wind Press
QNH
hPa
Press
MSL
hPa
Rain
since 9 am
mm
Dir
 
Spd
km/h
Gust
km/h
Spd
kts
Gust
kts
21/11:30pm 11.0 8.1 8.0 82 1.5 ENE 13 15 7 8 1019.6 - 0.2
21/11:00pm 11.7 8.2 8.6 81 1.5 ENE 17 19 9 10 1019.8 - 0.2
21/10:30pm 12.1 9.8 8.9 81 1.6 E 11 15 6 8 1019.7 - 0.2
21/10:00pm 11.9 9.3 9.5 85 1.2 E 13 15 7 8 1019.9 - 0.2
21/09:30pm 11.7 9.3 9.9 89 0.9 E 13 15 7 8 1019.9 - 0.2
21/09:00pm 11.0 8.5 9.8 92 0.6 E 13 17 7 9 1019.8 1019.7 0.2
21/08:30pm 11.3 8.5 9.9 91 0.7 E 15 17 8 9 1019.7 - 0.2
21/08:00pm 11.7 9.6 9.9 89 0.9 E 11 11 6 6 1019.6 - 0.2
21/07:30pm 12.0 9.6 9.9 87 1.1 E 13 13 7 7 1019.2 - 0.2
21/07:00pm 12.4 9.9 9.6 83 1.4 ESE 13 13 7 7 1018.8 - 0.2
21/06:30pm 12.5 10.2 9.0 79 1.8 ESE 11 11 6 6 1018.6 - 0.2
21/06:00pm 14.4 11.8 9.4 72 2.6 S 13 15 7 8 1018.3 1018.2 0.2
21/05:30pm 16.3 12.9 9.0 62 3.8 S 17 20 9 11 1018.1 - 0.2
21/05:00pm 17.7 13.5 8.3 54 4.8 S 20 24 11 13 1017.8 - 0.2
21/04:30pm 18.9 15.1 9.1 53 5.2 S 19 22 10 12 1017.4 - 0.2
21/04:00pm 19.5 15.5 9.1 51 5.5 S 20 26 11 14 1017.0 - 0.2
21/03:30pm 20.5 16.8 9.4 49 5.9 S 19 24 10 13 1016.9 - 0.2
21/03:00pm 20.8 17.3 7.4 42 6.9 W 15 24 8 13 1016.9 1016.8 0.2
21/02:30pm 20.7 17.6 7.3 42 6.9 W 13 20 7 11 1016.8 - 0.2
21/02:00pm 20.1 16.7 7.8 45 6.4 WSW 15 20 8 11 1017.0 - 0.2
21/01:30pm 20.1 16.3 7.5 44 6.5 W 17 22 9 12 1017.3 - 0.2
21/01:00pm 19.5 15.4 6.3 42 6.6 W 17 24 9 13 1017.4 - 0.2
21/12:30pm 19.4 16.4 6.2 42 6.6 NW 11 19 6 10 1017.8 - 0.0
21/12:00pm 18.8 15.4 6.0 43 6.3 NNW 13 20 7 11 1018.1 1018.0 0.0
21/11:30am 17.7 13.8 5.3 44 6.0 N 15 19 8 10 1018.2 - 0.0
21/11:00am 16.8 12.4 4.8 45 5.7 N 17 20 9 11 1018.3 - 0.0
21/10:30am 16.1 11.8 5.4 49 5.1 N 17 20 9 11 1018.2 - 0.0
21/10:00am 14.5 9.7 4.5 51 4.6 NNE 19 24 10 13 1018.0 - 0.0
21/09:30am 12.7 7.7 4.4 57 3.8 NNE 20 24 11 13 1017.7 - 0.0
21/09:00am 11.2 6.7 4.4 63 3.1 NE 17 24 9 13 1017.6 1017.5 0.8
21/08:30am 9.0 4.5 4.0 71 2.2 NE 17 20 9 11 1017.3 - 0.8
21/08:00am 8.8 3.9 4.0 72 2.1 NNE 19 24 10 13 1017.0 - 0.8
21/07:30am 9.1 4.6 4.1 71 2.2 NNE 17 20 9 11 1016.6 - 0.8
21/07:00am 10.1 5.3 4.7 69 2.4 NNE 19 22 10 12 1016.4 - 0.8
21/06:30am 10.3 6.0 5.1 70 2.4 NNE 17 20 9 11 1016.1 - 0.8
21/06:00am 10.1 6.6 5.5 73 2.1 NNE 13 17 7 9 1016.3 1016.2 0.8
21/05:30am 10.3 5.9 6.5 77 1.8 N 19 24 10 13 1016.4 - 0.8
21/05:00am 10.2 5.9 7.1 81 1.5 N 19 24 10 13 1015.9 - 0.8
21/04:30am 10.8 6.3 6.0 72 2.2 N 19 35 10 19 1016.6 - 0.8
21/04:00am 11.8 3.8 3.6 57 3.7 NNW 35 48 19 26 1017.8 - 0.6
21/03:51am 10.1 3.1 4.0 66 2.7 NW 30 44 16 24 1017.3 - 0.6
21/03:30am 9.7 4.8 3.9 67 2.6 NE 19 24 10 13 1015.6 - 0.6
21/03:00am 9.5 4.6 3.9 68 2.5 NE 19 24 10 13 1015.7 1015.6 0.6
21/02:30am 9.4 4.8 3.6 67 2.5 NE 17 20 9 11 1015.7 - 0.6
21/02:00am 8.9 3.8 3.1 67 2.5 NE 19 20 10 11 1016.0 - 0.6
21/01:30am 10.0 4.7 3.1 62 3.0 NE 20 26 11 14 1016.5 - 0.6
21/01:00am 9.6 3.6 3.4 65 2.7 NE 24 28 13 15 1016.6 - 0.6
21/12:30am 9.3 3.8 4.1 70 2.3 NE 22 28 12 15 1017.6 - 0.6
21/12:00am 10.1 4.7 4.3 67 2.6 NE 22 28 12 15 1017.6 1017.5 0.6
 
Date/Time
CST
Temp
°C
App
Temp
°C
Dew
Point
Rel
Hum
%
Delta-T
°C
Wind Press
QNH
hPa
Press
MSL
hPa
Rain
since 9 am
mm
Dir
 
Spd
km/h
Gust
km/h
Spd
kts
Gust
kts
20/11:30pm 10.4 5.5 5.0 69 2.5 NE 20 26 11 14 1017.5 - 0.6
20/11:00pm 9.3 4.9 4.7 73 2.1 ENE 17 20 9 11 1017.7 - 0.6
20/10:30pm 10.0 4.6 4.6 69 2.4 NE 22 33 12 18 1018.2 - 0.6
20/10:00pm 10.8 6.8 4.7 66 2.8 NNE 15 26 8 14 1019.0 - 0.4
20/09:30pm 11.5 6.3 2.5 54 3.9 NE 19 22 10 12 1017.7 - 0.0
20/09:00pm 11.5 6.8 3.0 56 3.7 ENE 17 19 9 10 1017.9 1017.8 0.0
20/08:30pm 12.3 7.7 3.8 56 3.8 ENE 17 20 9 11 1017.9 - 0.0
20/08:00pm 12.1 8.1 5.0 62 3.3 E 15 19 8 10 1017.7 - 0.0
20/07:30pm 11.0 6.7 5.1 67 2.7 E 17 17 9 9 1017.5 - 0.0

Other Formats:

Comma delimited format used in spreadsheet applications
http://www.bom.gov.au/fwo/IDS60801/IDS60801.94651.axf

JavaScript Object Notation format (JSON) in row-major order
http://www.bom.gov.au/fwo/IDS60801/IDS60801.94651.json